Observations for DINARD PLEURTUIT, France (LFRD)

LFRD 221300Z AUTO 27010KT 230V290 9999 FEW032 BKN092 OVC160 08/03 Q1005 TEMPO 27015G30KT 3000 SHRAGS BKN012CB   
LFRD 221230Z AUTO 26006KT CAVOK 08/04 Q1006 TEMPO 27015G30KT 3000 SHRAGS BKN012CB   
LFRD 221200Z AUTO 27009KT CAVOK 08/04 Q1006 TEMPO 27015G25KT 4000 SHRA BKN020TCU
LFRD 221130Z AUTO 25008KT CAVOK 07/05 Q1007 TEMPO 27015G25KT 4000 SHRA BKN020TCU
LFRD 221100Z AUTO 24007KT 9999 FEW033 OVC150 07/04 Q1007 TEMPO 27015G25KT 4000 SHRA BKN020TCU   
LFRD 221030Z AUTO 25009KT 9999 FEW034 BKN048 07/05 Q1007 TEMPO 27015G25KT 4000 SHRA BKN020TCU   
LFRD 221000Z AUTO 25006KT 9999 FEW034 BKN046 06/04 Q1007 TEMPO 27015G25KT 4000 SHRA BKN020TCU   
LFRD 220930Z AUTO 25008KT 9999 FEW027 SCT054 05/04 Q1008 TEMPO 27015G25KT 4000 SHRA BKN020TCU   
LFRD 220900Z AUTO 25006KT 9999 FEW022 SCT036 BKN140 04/03 Q1008 TEMPO 27015G25KT 4000 SHRA BKN020TCU
LFRD 220830Z AUTO 24009KT 9999 BKN035 BKN042 BKN056 04/03 Q1008 TEMPO 27015G25KT 4000 SHRA BKN020TCU
LFRD 220800Z AUTO 24007KT 9999 BKN037 BKN045 03/03 Q1008 TEMPO 27015G25KT 4000 SHRA BKN020TCU   
LFRD 220730Z AUTO 25005KT 9999 BKN036 BKN042 BKN054 04/03 Q1008 TEMPO 27015G25KT 4000 SHRA BKN020TCU
LFRD 220700Z AUTO 27003KT 240V320 9999 -RA BKN035 BKN042 BKN048 04/04 Q1008 TEMPO 27015G25KT 4000 SHRA BKN020TCU
LFRD 220630Z AUTO 24005KT 9999 BKN038 BKN047 BKN056 04/04 Q1008 TEMPO 27015G25KT 4000 SHRA BKN020TCU
LFRD 220600Z AUTO 24005KT 9999 FEW026/// BKN031/// BKN037/// ///TCU 05/04 Q1008 TEMPO 27015G25KT 4000 SHRA SCT030   
LFRD 220530Z AUTO 24006KT 9999 FEW010 BKN044 BKN056 05/04 Q1008 BECMG 31010KT   
LFRD 220500Z AUTO 25004KT 9999 FEW013 SCT045 BKN056 05/05 Q1008 NOSIG   
LFRD 220430Z AUTO 29005KT 9999 4100 RA BKN012 BKN018 BKN030 06/04 Q1009 TEMPO 33015G25KT BECMG NSW SCT030   
LFRD 220400Z AUTO 27009KT 9999 BKN014 BKN019 BKN029 06/05 Q1009 TEMPO 33015G25KT BECMG SCT030   
LFRD 220330Z AUTO 23011KT 9999 -RA SCT011 SCT021 BKN040 06/05 Q1009 TEMPO 2000 RA BKN003 BECMG 33015G25KT   
LFRD 220300Z AUTO 21010KT 5000 -RA BR SCT008 BKN017 BKN024 06/05 Q1010 TEMPO 2000 RA BKN003 BECMG 33015G25KT
LFRD 220230Z AUTO 20014KT 6000 RA SCT010 BKN019 BKN030 06/04 Q1010 TEMPO 19015G25KT 2000 RA BKN003  
LFRD 220200Z AUTO 20016KT 9999 -RA SCT015 BKN031 BKN052 06/04 Q1011 TEMPO 19015G25KT 2000 RA BKN003 
LFRD 220130Z AUTO 19016KT 9999 FEW016 SCT034 BKN070 06/04 Q1011 TEMPO 19015G25KT 2000 RA BKN003 
LFRD 220100Z AUTO 19016KT 9999 -RA FEW027 SCT041 BKN048 05/03 Q1012 TEMPO 19015G25KT 2000 RA BKN003 
LFRD 220030Z AUTO 20017KT 9999 FEW030 OVC041 06/03 Q1013 TEMPO 19015G25KT 2000 RA BKN003
LFRD 220000Z AUTO 20016KT 9999 BKN036 OVC042 05/03 Q1014 TEMPO 19015G25KT 2000 RA BKN003
LFRD 212330Z AUTO 20013KT 9999 BKN037 BKN045 BKN060 05/03 Q1015 TEMPO 19015G25KT 2000 RA BKN003 
LFRD 212300Z AUTO 21014KT 9999 FEW035 SCT045 BKN052 05/02 Q1015 TEMPO 19015G25KT 3000 RA BKN003 
LFRD 212230Z AUTO 20011KT 9999 SCT049 OVC064 04/02 Q1016 TEMPO 19015G25KT 3000 RA BKN003
LFRD 212200Z AUTO 20012KT 9999 FEW039 BKN049 OVC056 05/02 Q1017 TEMPO 19015G25KT 3000 RA BKN003 
LFRD 212130Z AUTO 21011KT CAVOK 04/02 Q1017 BECMG RA BKN015 
LFRD 212100Z AUTO 21008KT 9000 NSC 04/02 Q1018 BECMG RA BKN015  
LFRD 212030Z AUTO 19009KT 9000 NSC 03/01 Q1018 BECMG RA BKN015  
LFRD 212000Z AUTO 19008KT 8000 NSC 03/02 Q1018 BECMG RA BKN015  
LFRD 211930Z AUTO 19008KT 8000 FEW036 BKN240 03/02 Q1019 BECMG RA   
LFRD 211900Z AUTO 20008KT 8000 BKN039 BKN170 04/02 Q1020 BECMG RA   
LFRD 211830Z AUTO 19007KT 8000 BKN036 BKN210 04/02 Q1020 BECMG RA   
LFRD 211800Z AUTO 18006KT 9000 OVC038 04/02 Q1021 BECMG RA  
LFRD 211730Z AUTO 20005KT 9999 BKN041 BKN047 03/01 Q1021 NOSIG  
LFRD 211700Z AUTO 21004KT 9999 -RA BKN047 BKN210 04/01 Q1021 NOSIG  
LFRD 211630Z AUTO 19004KT 150V220 CAVOK 04/01 Q1021 NOSIG   
LFRD 211600Z AUTO 21004KT 9999 FEW025 06/02 Q1021 NOSIG 
LFRD 211530Z AUTO 23006KT 9999 SCT028 06/02 Q1022 NOSIG 
LFRD 211500Z AUTO 23005KT 190V270 9999 OVC027 07/02 Q1022 NOSIG 
LFRD 211430Z AUTO 22004KT 190V260 9999 BKN029 07/02 Q1022 NOSIG 
LFRD 211400Z AUTO 23004KT 200V270 9999 BKN030 07/01 Q1023 NOSIG 
LFRD 211330Z AUTO VRB02KT CAVOK 08/01 Q1023 NOSIG   
LFRD 211300Z AUTO VRB03KT CAVOK 07/01 Q1023 NOSIG   
LFRD 211230Z AUTO 07005KT 010V100 CAVOK 07/01 Q1024 NOSIG